Time;durP1;ratioP1;P1;durP2;ratioP2;P2;SDS_P1;SDS_P2;PMS_P1;PMS_P2;Temp;Humidity;BMP_temperature;BMP_pressure;BME280_temperature;BME280_humidity;BME280_pressure;Samples;Min_cycle;Max_cycle;Signal;HPM_P1;HPM_P2
2022/01/14 00:00:04;;;;;;;3.50;3.03;;;;;;;18.77;38.98;102442.13;4922773;28;20063;-45
2022/01/14 00:02:30;;;;;;;4.05;2.97;;;;;;;18.77;39.01;102436.84;5005562;28;20139;-44
2022/01/14 00:04:55;;;;;;;2.95;2.55;;;;;;;18.76;38.88;102440.47;4977845;28;20391;-46
2022/01/14 00:07:21;;;;;;;4.45;3.40;;;;;;;18.74;39.00;102432.72;4912142;28;20629;-43
2022/01/14 00:09:47;;;;;;;4.18;2.63;;;;;;;18.73;39.04;102431.03;4920010;28;20043;-44
2022/01/14 00:12:18;;;;;;;3.42;2.75;;;;;;;18.72;39.12;102437.31;4913972;29;20048;-43
2022/01/14 00:14:56;;;;;;;5.15;2.92;;;;;;;18.70;39.08;102436.63;4924682;29;20028;-46
2022/01/14 00:17:21;;;;;;;4.30;2.78;;;;;;;18.68;39.03;102428.03;4915851;29;20055;-48
2022/01/14 00:19:47;;;;;;;3.33;2.63;;;;;;;18.67;38.99;102426.38;4916532;28;20503;-48
2022/01/14 00:22:15;;;;;;;3.70;2.97;;;;;;;18.66;39.12;102419.41;4920490;28;20032;-47
2022/01/14 00:33:09;;;;;;;4.13;2.20;;;;;;;18.59;39.15;102415.69;4923662;29;20505;-48
2022/01/14 00:35:36;;;;;;;3.83;2.80;;;;;;;18.57;39.19;102420.28;4919454;29;20455;-44
2022/01/14 00:38:03;;;;;;;3.35;2.65;;;;;;;18.58;39.10;102411.38;4923784;29;20139;-44
2022/01/14 00:40:28;;;;;;;3.75;2.47;;;;;;;18.57;39.29;102407.09;4920171;28;20069;-48
2022/01/14 00:42:54;;;;;;;5.28;3.20;;;;;;;18.55;39.16;102401.97;4943223;28;20059;-47
2022/01/14 00:45:20;;;;;;;3.38;2.35;;;;;;;18.54;39.07;102392.38;4925869;29;20042;-43
2022/01/14 00:47:46;;;;;;;5.03;2.85;;;;;;;18.53;39.05;102390.72;4925772;28;20437;-44
2022/01/14 00:50:14;;;;;;;4.70;2.92;;;;;;;18.53;39.06;102389.88;4929497;28;20039;-43
2022/01/14 00:52:41;;;;;;;4.03;2.80;;;;;;;18.52;38.85;102386.41;4923720;28;20093;-46
2022/01/14 00:55:09;;;;;;;3.78;2.78;;;;;;;18.52;38.89;102386.41;4968762;28;20195;-46
2022/01/14 01:00:22;;;;;;;3.30;2.45;;;;;;;18.48;38.92;102371.03;4917474;29;20122;-49
2022/01/14 01:02:48;;;;;;;3.22;2.42;;;;;;;18.49;38.91;102370.88;4929282;29;20063;-48
2022/01/14 01:05:14;;;;;;;4.25;3.33;;;;;;;18.49;38.78;102375.31;4932883;28;20071;-45
2022/01/14 01:07:42;;;;;;;3.05;2.45;;;;;;;18.49;38.76;102376.16;4935939;29;20115;-49
2022/01/14 01:10:10;;;;;;;3.13;2.65;;;;;;;18.49;38.72;102375.31;4911431;28;20158;-46
2022/01/14 01:12:49;;;;;;;4.15;2.45;;;;;;;18.48;38.86;102365.75;4908819;28;20036;-48
2022/01/14 01:15:17;;;;;;;5.20;3.03;;;;;;;18.45;38.85;102364.25;4909663;28;20043;-47
2022/01/14 01:17:45;;;;;;;4.00;2.60;;;;;;;18.45;38.80;102366.88;4917298;28;20399;-48
2022/01/14 01:20:13;;;;;;;3.63;3.20;;;;;;;18.45;38.84;102366.03;4923036;28;20032;-45
2022/01/14 01:22:40;;;;;;;4.60;2.80;;;;;;;18.44;38.77;102367.84;4908832;28;20729;-48
2022/01/14 01:25:07;;;;;;;3.85;2.80;;;;;;;18.43;38.57;102370.69;4912541;29;20051;-45
2022/01/14 01:27:38;;;;;;;4.75;2.40;;;;;;;18.44;38.72;102367.03;4939659;28;20136;-49
2022/01/14 01:33:01;;;;;;;3.75;2.72;;;;;;;18.39;38.61;102350.84;4919749;28;20044;-44
2022/01/14 01:35:27;;;;;;;3.22;1.95;;;;;;;18.39;38.58;102349.03;4910027;28;20059;-47
2022/01/14 01:37:53;;;;;;;4.35;2.67;;;;;;;18.38;38.46;102351.81;4923722;29;20035;-47
2022/01/14 01:40:20;;;;;;;3.35;2.60;;;;;;;18.37;38.57;102355.44;4952151;28;20046;-50
2022/01/14 01:42:46;;;;;;;3.05;1.95;;;;;;;18.36;38.53;102351.97;4919022;29;20024;-44
2022/01/14 01:45:15;;;;;;;3.05;2.03;;;;;;;18.35;38.51;102347.66;4916933;29;20092;-43
2022/01/14 01:47:42;;;;;;;4.68;2.78;;;;;;;18.34;38.68;102346.00;4908438;28;20451;-45
2022/01/14 01:50:14;;;;;;;4.50;2.55;;;;;;;18.31;38.58;102335.75;4916979;28;20036;-43
2022/01/14 01:52:41;;;;;;;4.28;2.83;;;;;;;18.32;38.66;102341.84;4926884;28;20114;-43
2022/01/14 01:55:08;;;;;;;3.75;2.30;;;;;;;18.32;38.78;102328.66;4921136;28;20519;-43
2022/01/14 01:57:34;;;;;;;3.53;2.78;;;;;;;18.32;38.69;102331.31;4913658;28;20081;-43
2022/01/14 02:00:01;;;;;;;4.10;2.88;;;;;;;18.30;38.57;102328.81;4914118;29;20522;-43
2022/01/14 02:02:26;;;;;;;3.92;2.45;;;;;;;18.30;38.51;102327.97;4935205;28;20045;-47
2022/01/14 02:04:52;;;;;;;3.58;2.42;;;;;;;18.29;38.60;102321.03;4921234;28;20036;-43
2022/01/14 02:07:18;;;;;;;3.97;2.67;;;;;;;18.27;38.52;102323.00;4914031;28;20048;-47
2022/01/14 02:09:43;;;;;;;3.60;2.22;;;;;;;18.26;38.75;102311.63;4911267;28;20460;-44
2022/01/14 02:12:11;;;;;;;3.60;2.10;;;;;;;18.27;38.46;102317.72;4918225;28;20059;-45
2022/01/14 02:23:09;;;;;;;4.07;2.67;;;;;;;18.17;38.42;102296.69;4965441;28;20050;-46
2022/01/14 02:25:36;;;;;;;2.95;1.90;;;;;;;18.18;38.48;102296.53;4953153;28;20487;-44
2022/01/14 02:28:10;;;;;;;3.10;2.10;;;;;;;18.16;38.57;102301.13;4934694;28;20047;-44
2022/01/14 02:30:41;;;;;;;3.53;2.13;;;;;;;18.17;38.71;102299.31;4951774;28;20035;-43
2022/01/14 02:33:08;;;;;;;4.05;1.90;;;;;;;18.15;38.59;102288.94;4947261;28;20051;-44
2022/01/14 02:35:34;;;;;;;3.22;2.30;;;;;;;18.15;38.46;102288.94;4960576;28;20035;-44
2022/01/14 02:38:00;;;;;;;3.10;1.95;;;;;;;18.13;38.64;102277.69;4966019;28;20410;-44
2022/01/14 02:40:26;;;;;;;2.78;1.95;;;;;;;18.12;38.52;102276.03;4949397;28;20054;-43
2022/01/14 02:42:52;;;;;;;3.45;2.45;;;;;;;18.11;38.50;102277.00;4947550;28;20535;-44
2022/01/14 02:45:18;;;;;;;3.35;1.40;;;;;;;18.10;38.31;102267.44;4950685;28;20386;-43
2022/01/14 02:47:45;;;;;;;2.67;1.60;;;;;;;18.07;38.33;102254.53;4964130;28;20047;-43
2022/01/14 02:50:19;;;;;;;3.03;2.00;;;;;;;18.05;38.43;102256.50;4964270;28;20086;-46
2022/01/14 02:55:18;;;;;;;3.67;2.25;;;;;;;18.05;38.39;102248.59;4952593;28;20081;-46
2022/01/14 02:57:47;;;;;;;3.13;2.05;;;;;;;18.04;38.42;102248.75;4944016;29;20031;-45
2022/01/14 03:00:15;;;;;;;2.78;1.73;;;;;;;18.03;38.40;102242.63;4924695;28;20382;-46
2022/01/14 03:02:44;;;;;;;3.13;2.08;;;;;;;18.04;38.56;102239.03;4913484;29;20044;-46
2022/01/14 03:05:11;;;;;;;3.85;2.13;;;;;;;18.06;38.57;102242.34;5100322;22;20137;-66
2022/01/14 03:07:40;;;;;;;4.10;2.28;;;;;;;18.05;38.93;102235.41;5006232;28;20045;-67
2022/01/14 03:10:07;;;;;;;3.28;2.28;;;;;;;18.04;39.00;102228.47;5007656;28;20175;-66
2022/01/14 03:12:34;;;;;;;5.22;2.75;;;;;;;18.04;38.73;102217.09;5006046;28;20049;-69
2022/01/14 03:15:00;;;;;;;3.78;2.47;;;;;;;18.02;38.84;102209.34;5007104;28;20073;-71
2022/01/14 03:17:27;;;;;;;3.58;2.38;;;;;;;18.02;38.72;102221.69;4988692;28;20069;-70
2022/01/14 03:19:53;;;;;;;3.63;2.17;;;;;;;18.01;38.69;102218.22;5007325;28;20045;-65
2022/01/14 03:22:22;;;;;;;3.60;2.30;;;;;;;17.99;38.73;102214.91;5007089;28;20026;-69
2022/01/14 03:27:13;;;;;;;3.65;2.25;;;;;;;17.98;38.52;102213.25;5009709;28;20088;-67
2022/01/14 03:29:39;;;;;;;3.80;2.22;;;;;;;17.99;38.69;102201.72;5010291;28;20025;-66
2022/01/14 03:32:04;;;;;;;4.13;2.72;;;;;;;17.98;38.71;102194.78;5011054;28;20037;-67
2022/01/14 03:34:31;;;;;;;3.47;2.80;;;;;;;17.98;38.83;102196.59;5010516;28;20033;-70
2022/01/14 03:36:57;;;;;;;4.18;2.47;;;;;;;17.97;38.59;102195.75;5010855;28;20092;-69
2022/01/14 03:39:22;;;;;;;3.28;2.28;;;;;;;17.97;38.68;102200.22;5010363;28;20061;-68
2022/01/14 03:41:48;;;;;;;4.25;2.55;;;;;;;17.97;38.46;102198.41;5010459;28;20448;-68
2022/01/14 03:44:15;;;;;;;4.70;2.10;;;;;;;17.96;38.43;102195.94;5009835;28;20036;-66
2022/01/14 03:46:41;;;;;;;3.67;2.13;;;;;;;17.95;38.55;102189.00;5010046;28;20030;-69
2022/01/14 03:49:06;;;;;;;3.05;2.38;;;;;;;17.94;38.44;102188.19;5010650;28;20111;-69
2022/01/14 03:51:32;;;;;;;4.10;2.47;;;;;;;17.94;38.29;102188.19;5010093;28;20026;-68
2022/01/14 03:53:57;;;;;;;3.55;2.00;;;;;;;17.93;38.34;102186.53;5010348;28;20046;-67
2022/01/14 03:56:23;;;;;;;3.45;2.00;;;;;;;17.93;38.32;102183.06;5010408;28;20457;-70
2022/01/14 03:58:49;;;;;;;3.33;2.20;;;;;;;17.91;38.38;102185.84;5009120;28;20058;-69
2022/01/14 04:01:16;;;;;;;3.47;2.40;;;;;;;17.90;38.35;102187.66;5006302;28;20064;-69
2022/01/14 04:03:42;;;;;;;3.08;2.15;;;;;;;17.89;38.36;102175.47;5008703;28;20022;-69
2022/01/14 04:06:10;;;;;;;3.30;2.38;;;;;;;17.90;38.30;102181.56;5002939;28;20049;-66
2022/01/14 04:08:36;;;;;;;5.05;2.45;;;;;;;17.88;38.29;102178.25;5006754;28;20041;-68
2022/01/14 04:11:03;;;;;;;3.97;2.60;;;;;;;17.87;38.33;102168.69;5008651;28;20204;-70
2022/01/14 04:16:10;;;;;;;4.97;2.58;;;;;;;17.84;38.10;102161.91;5006048;28;20091;-67
2022/01/14 04:18:35;;;;;;;3.95;2.35;;;;;;;17.85;38.29;102160.91;5010349;28;20021;-70
2022/01/14 04:21:01;;;;;;;4.05;2.50;;;;;;;17.83;38.37;102154.97;5007119;28;20610;-70
2022/01/14 04:23:26;;;;;;;3.15;2.20;;;;;;;17.85;38.10;102160.09;5006779;28;20025;-68
2022/01/14 04:25:53;;;;;;;3.70;2.55;;;;;;;17.83;38.19;102151.50;5009386;28;20157;-69
2022/01/14 04:28:24;;;;;;;3.28;1.92;;;;;;;17.81;38.16;102149.00;5007542;28;20396;-69
2022/01/14 04:30:56;;;;;;;3.65;2.28;;;;;;;17.82;38.15;102141.94;5007441;28;20474;-70
2022/01/14 04:33:24;;;;;;;2.80;1.63;;;;;;;17.80;38.05;102151.78;5007079;28;20067;-69
2022/01/14 04:35:50;;;;;;;4.18;2.42;;;;;;;17.79;38.13;102150.13;5007312;28;20052;-69
2022/01/14 04:38:16;;;;;;;3.13;2.22;;;;;;;17.77;38.04;102142.38;5004208;28;20026;-67
2022/01/14 04:40:41;;;;;;;2.50;1.48;;;;;;;17.76;37.97;102147.81;5009633;28;20080;-67
2022/01/14 04:43:07;;;;;;;2.80;1.73;;;;;;;17.74;37.82;102144.47;5007748;28;20034;-67
2022/01/14 04:48:02;;;;;;;2.88;1.55;;;;;;;17.72;37.87;102141.16;5009446;28;20129;-68
2022/01/14 04:50:28;;;;;;;3.03;2.35;;;;;;;17.71;37.90;102139.50;5006136;28;20118;-67
2022/01/14 04:52:53;;;;;;;4.05;2.42;;;;;;;17.70;38.03;102143.97;5004260;28;20093;-70
2022/01/14 04:55:21;;;;;;;2.35;1.63;;;;;;;17.68;37.95;102148.56;5006700;28;20121;-68
2022/01/14 04:57:47;;;;;;;2.67;1.77;;;;;;;17.67;37.79;102146.88;5009314;28;20092;-70
2022/01/14 05:00:15;;;;;;;2.25;1.40;;;;;;;17.66;37.69;102149.69;5008233;28;20073;-67
2022/01/14 05:02:40;;;;;;;3.05;1.90;;;;;;;17.65;37.95;102150.63;5008441;28;20057;-68
2022/01/14 05:05:08;;;;;;;2.92;1.38;;;;;;;17.63;37.87;102147.31;5007196;28;20476;-68
2022/01/14 05:07:34;;;;;;;3.80;2.13;;;;;;;17.64;37.73;102156.88;5006721;28;20082;-68
2022/01/14 05:12:29;;;;;;;3.20;2.13;;;;;;;17.66;37.61;102161.03;5007760;28;20083;-68
2022/01/14 05:14:54;;;;;;;3.95;1.90;;;;;;;17.69;37.99;102154.66;5007257;28;20044;-69
2022/01/14 05:17:20;;;;;;;3.65;1.98;;;;;;;17.72;37.62;102149.91;5008459;28;20403;-67
2022/01/14 05:19:46;;;;;;;4.15;2.65;;;;;;;17.77;38.16;102152.91;5006817;28;20216;-71
2022/01/14 05:22:11;;;;;;;7.97;3.35;;;;;;;17.84;39.77;102147.88;5006262;28;20030;-69
2022/01/14 05:24:37;;;;;;;7.05;2.63;;;;;;;17.85;39.91;102139.81;5005943;28;20044;-67
2022/01/14 05:27:02;;;;;;;6.88;3.03;;;;;;;17.87;40.00;102148.41;5008601;28;20030;-69
2022/01/14 05:29:28;;;;;;;4.30;2.20;;;;;;;17.88;40.73;102143.97;5007017;28;20113;-66
2022/01/14 05:32:02;;;;;;;4.45;2.42;;;;;;;17.91;40.88;102133.13;5007514;28;20033;-70
2022/01/14 05:34:27;;;;;;;9.10;2.33;;;;;;;17.93;41.48;102133.78;4994247;28;20378;-70
2022/01/14 05:36:53;;;;;;;6.28;2.22;;;;;;;17.95;41.70;102129.19;5006090;28;20030;-68
2022/01/14 05:39:23;;;;;;;4.28;2.28;;;;;;;17.97;42.08;102131.66;5006029;28;20031;-69
2022/01/14 05:41:49;;;;;;;5.43;2.50;;;;;;;17.98;42.53;102131.50;5000180;28;20034;-69
2022/01/14 05:44:14;;;;;;;5.32;2.42;;;;;;;18.01;43.22;102127.72;5006997;28;20030;-69
2022/01/14 05:46:40;;;;;;;4.13;1.85;;;;;;;18.04;43.77;102138.81;5007600;28;20034;-67
2022/01/14 05:49:05;;;;;;;10.85;3.65;;;;;;;18.07;43.84;102140.31;5007168;28;20080;-68
2022/01/14 05:51:31;;;;;;;6.68;2.42;;;;;;;18.09;44.13;102135.72;5007391;28;20091;-68
2022/01/14 05:53:56;;;;;;;9.18;2.28;;;;;;;18.14;44.85;102139.53;5006925;28;20037;-66
2022/01/14 05:56:22;;;;;;;9.35;2.97;;;;;;;18.19;45.29;102137.28;5005541;28;20041;-70
2022/01/14 05:58:48;;;;;;;8.88;3.03;;;;;;;18.22;45.09;102134.34;5007273;28;20452;-68
2022/01/14 06:01:13;;;;;;;5.32;2.33;;;;;;;18.27;45.56;102127.78;5003792;28;20030;-68
2022/01/14 06:03:39;;;;;;;6.38;2.60;;;;;;;18.30;45.63;102120.38;5007811;28;20033;-67
2022/01/14 06:06:04;;;;;;;4.53;2.53;;;;;;;18.34;45.87;102127.00;5008515;28;20052;-69
2022/01/14 06:08:30;;;;;;;5.55;3.08;;;;;;;18.38;45.90;102124.88;5009087;28;20429;-70
2022/01/14 06:10:56;;;;;;;6.85;2.20;;;;;;;18.42;46.28;102118.31;5008914;28;20025;-68
2022/01/14 06:13:21;;;;;;;4.85;2.33;;;;;;;18.46;46.02;102120.44;5008428;28;20160;-70
2022/01/14 06:15:47;;;;;;;4.53;2.30;;;;;;;18.49;45.91;102108.75;5008027;28;20379;-68
2022/01/14 06:18:12;;;;;;;4.07;2.17;;;;;;;18.52;46.08;102111.91;5008213;28;20543;-67
2022/01/14 06:20:38;;;;;;;7.05;2.60;;;;;;;18.55;45.91;102116.88;5008055;28;20512;-66
2022/01/14 06:23:03;;;;;;;5.15;2.67;;;;;;;18.58;45.76;102110.47;5008095;28;20022;-68
2022/01/14 06:25:28;;;;;;;4.55;2.83;;;;;;;18.62;45.86;102105.72;5008333;28;20038;-70
2022/01/14 06:27:54;;;;;;;4.40;2.85;;;;;;;18.62;46.06;102105.72;5008167;28;20063;-67
2022/01/14 06:30:19;;;;;;;6.32;2.78;;;;;;;18.62;46.08;102105.72;5005732;28;20041;-68
2022/01/14 06:32:45;;;;;;;5.15;3.00;;;;;;;18.62;46.33;102103.91;5006372;28;20482;-69
2022/01/14 06:35:14;;;;;;;6.10;2.92;;;;;;;18.63;45.59;102102.94;5004019;28;20033;-71
2022/01/14 06:37:41;;;;;;;3.80;1.92;;;;;;;18.61;45.16;102102.25;5007019;28;20401;-66
2022/01/14 06:40:07;;;;;;;6.63;2.63;;;;;;;18.59;44.79;102101.56;5007860;28;20060;-65
2022/01/14 06:42:33;;;;;;;4.90;2.67;;;;;;;18.58;44.34;102111.28;4957388;28;20050;-69
2022/01/14 06:44:59;;;;;;;5.45;2.75;;;;;;;18.59;43.87;102098.91;4968744;28;20050;-67
2022/01/14 06:47:25;;;;;;;5.20;2.33;;;;;;;18.58;43.67;102089.34;4968668;28;20513;-67
2022/01/14 06:49:50;;;;;;;4.30;2.53;;;;;;;18.59;43.25;102096.28;4968304;28;20027;-68
2022/01/14 06:52:16;;;;;;;5.10;2.97;;;;;;;18.60;43.07;102095.31;4968878;28;20033;-68
2022/01/14 06:54:41;;;;;;;5.60;2.80;;;;;;;18.60;43.05;102087.41;4968950;28;20030;-66
2022/01/14 06:57:07;;;;;;;7.07;3.50;;;;;;;18.59;42.84;102091.00;4967343;28;20034;-69
2022/01/14 06:59:33;;;;;;;6.53;3.50;;;;;;;18.59;42.68;102083.09;4967762;28;20502;-70
2022/01/14 07:01:59;;;;;;;5.75;2.72;;;;;;;18.60;42.38;102082.13;4972058;28;20049;-69
2022/01/14 07:04:24;;;;;;;5.75;3.20;;;;;;;18.59;42.30;102091.00;4972906;28;20420;-69
2022/01/14 07:06:50;;;;;;;6.13;3.10;;;;;;;18.58;42.41;102089.34;4972654;28;20054;-68
2022/01/14 07:09:15;;;;;;;7.82;3.00;;;;;;;18.58;42.40;102092.00;4972964;28;20053;-69
2022/01/14 07:11:41;;;;;;;7.07;2.97;;;;;;;18.56;42.38;102096.59;4971957;28;20034;-71
2022/01/14 07:14:07;;;;;;;5.57;3.33;;;;;;;18.56;42.16;102089.50;4972877;28;20414;-69
2022/01/14 07:16:33;;;;;;;7.90;3.40;;;;;;;18.55;42.23;102085.22;4972823;28;20416;-66
2022/01/14 07:19:00;;;;;;;5.88;2.85;;;;;;;18.54;42.08;102094.13;4972570;28;20494;-68
2022/01/14 07:21:26;;;;;;;6.28;2.92;;;;;;;18.55;42.24;102097.56;4972735;28;20089;-69
2022/01/14 07:23:52;;;;;;;5.72;2.72;;;;;;;18.54;42.21;102093.28;4972602;28;20027;-67
2022/01/14 07:26:17;;;;;;;4.85;2.70;;;;;;;18.53;42.32;102081.91;4972481;28;20023;-67
2022/01/14 07:28:43;;;;;;;13.52;3.45;;;;;;;18.53;42.13;102083.72;4972060;28;20031;-69
2022/01/14 07:31:09;;;;;;;7.38;3.08;;;;;;;18.52;42.21;102082.88;4972535;28;20027;-67
2022/01/14 07:33:34;;;;;;;8.02;3.95;;;;;;;18.52;42.27;102087.34;4972382;28;20026;-68
2022/01/14 07:36:00;;;;;;;7.45;3.67;;;;;;;18.52;42.09;102087.34;4972258;28;20039;-70
2022/01/14 07:38:25;;;;;;;6.93;3.10;;;;;;;18.52;42.26;102079.41;4972219;28;20545;-66
2022/01/14 07:40:51;;;;;;;11.10;3.97;;;;;;;18.53;42.60;102083.72;4972438;28;20031;-67
2022/01/14 07:43:18;;;;;;;8.50;4.47;;;;;;;18.55;42.66;102073.81;4971909;28;20558;-71
2022/01/14 07:45:44;;;;;;;6.38;2.75;;;;;;;18.58;42.79;102081.44;4972017;28;20030;-69
2022/01/14 07:48:09;;;;;;;11.70;3.25;;;;;;;18.56;42.93;102078.94;4971884;28;20030;-67
2022/01/14 07:50:34;;;;;;;4.65;2.20;;;;;;;18.54;43.02;102066.88;4971723;28;20026;-66
2022/01/14 07:53:00;;;;;;;9.75;3.00;;;;;;;18.54;42.96;102077.44;4971893;28;20317;-66
2022/01/14 07:55:25;;;;;;;5.40;2.67;;;;;;;18.54;42.99;102067.72;4971744;28;20038;-65
2022/01/14 07:57:51;;;;;;;8.00;2.65;;;;;;;18.53;42.97;102073.97;4971726;28;20482;-66
2022/01/14 08:00:17;;;;;;;4.05;2.33;;;;;;;18.53;42.99;102073.16;4971890;28;20022;-70
2022/01/14 08:02:42;;;;;;;5.07;2.50;;;;;;;18.52;42.87;102066.22;4971775;28;20042;-66
2022/01/14 08:05:08;;;;;;;6.85;3.20;;;;;;;18.53;43.13;102073.16;4971743;28;20498;-69
2022/01/14 08:07:35;;;;;;;5.28;2.83;;;;;;;18.51;43.28;102073.31;4971095;28;20053;-66
2022/01/14 08:10:00;;;;;;;9.60;2.72;;;;;;;18.53;43.34;102073.16;4971697;28;20469;-67
2022/01/14 08:12:26;;;;;;;7.55;3.15;;;;;;;18.53;43.04;102076.63;4970522;28;20058;-68
2022/01/14 08:14:51;;;;;;;7.18;3.00;;;;;;;18.53;43.11;102079.25;4969957;28;20035;-67
2022/01/14 08:17:19;;;;;;;7.15;2.90;;;;;;;18.52;43.03;102082.88;4967792;28;20355;-68
2022/01/14 08:19:45;;;;;;;5.38;2.28;;;;;;;18.53;42.89;102086.34;4970246;28;20034;-71
2022/01/14 08:22:10;;;;;;;6.47;2.45;;;;;;;18.53;42.78;102086.34;4968951;28;20142;-69
2022/01/14 08:24:36;;;;;;;7.15;3.17;;;;;;;18.54;42.53;102082.72;4986116;28;20065;-71
2022/01/14 08:27:03;;;;;;;6.50;2.05;;;;;;;18.53;42.52;102081.91;4971208;28;20653;-70
2022/01/14 08:29:28;;;;;;;7.10;2.47;;;;;;;18.54;42.40;102077.44;4971551;28;20030;-67
2022/01/14 08:31:55;;;;;;;5.50;2.80;;;;;;;18.53;42.20;102071.34;4973262;28;20030;-69
2022/01/14 08:34:21;;;;;;;5.95;3.08;;;;;;;18.53;42.26;102073.16;4971871;28;20031;-67
2022/01/14 08:36:47;;;;;;;7.05;3.25;;;;;;;18.53;42.10;102073.16;4970118;28;20027;-69
2022/01/14 08:39:13;;;;;;;5.22;2.17;;;;;;;18.52;42.26;102068.84;4970975;28;20109;-67
2022/01/14 08:41:39;;;;;;;3.65;1.92;;;;;;;18.51;41.99;102077.75;4969327;28;20027;-70
2022/01/14 08:44:05;;;;;;;4.32;1.98;;;;;;;18.49;41.79;102069.16;4971130;28;20533;-69
2022/01/14 08:46:30;;;;;;;5.57;2.55;;;;;;;18.46;41.38;102064.22;4971043;28;20030;-69
2022/01/14 08:48:59;;;;;;;7.78;2.72;;;;;;;18.42;41.05;102052.34;4963614;28;20037;-67
2022/01/14 08:51:27;;;;;;;4.70;2.78;;;;;;;18.39;41.08;102053.47;4968892;28;20019;-70
2022/01/14 08:53:53;;;;;;;7.00;2.60;;;;;;;18.37;41.13;102044.88;4968849;28;20042;-68
2022/01/14 08:56:18;;;;;;;10.80;2.92;;;;;;;18.37;40.85;102046.72;4969119;28;20402;-68
2022/01/14 08:58:44;;;;;;;20.20;3.28;;;;;;;18.33;41.12;102034.81;4968452;28;20045;-70
2022/01/14 09:01:10;;;;;;;19.92;3.38;;;;;;;18.32;41.28;102041.06;4968844;28;20060;-67
2022/01/14 09:03:36;;;;;;;11.98;2.30;;;;;;;18.30;41.36;102043.03;4968012;28;20034;-67
2022/01/14 09:06:02;;;;;;;13.55;4.05;;;;;;;18.30;41.46;102041.22;4965383;28;20093;-69
2022/01/14 09:08:27;;;;;;;11.70;3.08;;;;;;;18.30;41.39;102033.31;4967951;28;20027;-70
2022/01/14 09:10:53;;;;;;;11.88;2.92;;;;;;;18.31;41.37;102028.84;4967278;28;20054;-70
2022/01/14 09:13:18;;;;;;;12.65;3.10;;;;;;;18.31;41.45;102028.84;4967122;28;20493;-69
2022/01/14 09:15:46;;;;;;;11.20;2.80;;;;;;;18.31;41.37;102020.94;4968569;28;20030;-69
2022/01/14 09:18:11;;;;;;;9.48;2.83;;;;;;;18.28;41.32;102018.63;4968647;28;20026;-67
2022/01/14 09:20:37;;;;;;;10.32;3.28;;;;;;;18.28;41.38;102015.97;4968431;28;20038;-67
2022/01/14 09:23:04;;;;;;;10.05;2.97;;;;;;;18.27;41.21;102019.59;4982529;28;20027;-67
2022/01/14 09:25:29;;;;;;;9.60;2.38;;;;;;;18.26;41.18;102017.94;4967658;28;20081;-69
2022/01/14 09:27:55;;;;;;;7.53;1.85;;;;;;;18.24;41.29;102018.09;4968322;28;20118;-66
2022/01/14 09:30:22;;;;;;;7.13;2.15;;;;;;;18.22;41.17;102018.25;4968756;28;20043;-68
2022/01/14 09:32:47;;;;;;;5.75;2.40;;;;;;;18.21;41.25;102013.97;4967599;28;20469;-69
2022/01/14 09:35:13;;;;;;;11.63;3.35;;;;;;;18.19;41.83;102015.09;4965876;28;20126;-68
2022/01/14 09:37:44;;;;;;;5.78;2.00;;;;;;;18.21;42.00;102023.69;4965297;28;20027;-68
2022/01/14 09:40:10;;;;;;;6.63;2.40;;;;;;;18.21;42.37;102024.53;4967778;28;20545;-67
2022/01/14 09:42:36;;;;;;;6.72;2.45;;;;;;;18.20;42.25;102020.22;4968759;28;20020;-67
2022/01/14 09:45:03;;;;;;;11.05;2.97;;;;;;;18.20;42.34;102020.22;4969975;28;20112;-69
2022/01/14 09:47:28;;;;;;;7.75;2.40;;;;;;;18.22;42.52;102022.72;4969262;28;20106;-68
2022/01/14 09:49:53;;;;;;;6.57;2.47;;;;;;;18.22;42.60;102020.06;4966230;28;20364;-66
2022/01/14 09:52:19;;;;;;;4.72;2.40;;;;;;;18.17;42.27;102010.00;4969302;28;20382;-69
2022/01/14 09:54:46;;;;;;;6.78;3.78;;;;;;;18.11;41.09;102007.16;4968299;28;20031;-69
2022/01/14 09:57:15;;;;;;;7.88;3.75;;;;;;;17.98;39.15;102004.09;4968616;28;20526;-67
2022/01/14 09:59:40;;;;;;;10.65;4.18;;;;;;;17.93;37.51;102003.75;4968764;28;20030;-68
2022/01/14 10:02:07;;;;;;;10.20;3.78;;;;;;;17.85;37.08;101992.19;4965358;28;20027;-68
2022/01/14 10:04:35;;;;;;;6.65;3.25;;;;;;;17.83;37.05;101993.31;4949326;28;20035;-70
2022/01/14 10:07:03;;;;;;;6.28;3.15;;;;;;;17.84;37.04;101989.69;4960030;28;20503;-71
2022/01/14 10:09:35;;;;;;;5.68;3.10;;;;;;;17.85;37.02;101981.63;4968493;28;20031;-69
2022/01/14 10:12:16;;;;;;;7.50;3.30;;;;;;;17.88;37.06;101991.03;4968924;28;20027;-69
2022/01/14 10:14:57;;;;;;;5.57;3.38;;;;;;;17.88;37.42;101985.75;4967496;28;20038;-68
2022/01/14 10:17:24;;;;;;;6.05;3.80;;;;;;;17.92;37.45;101981.00;4965665;28;20030;-68
2022/01/14 10:19:50;;;;;;;5.38;2.92;;;;;;;17.93;37.58;101983.50;4964665;28;20038;-67
2022/01/14 10:22:31;;;;;;;5.05;2.33;;;;;;;17.89;37.53;101967.16;4961375;28;20353;-66
2022/01/14 10:25:03;;;;;;;5.13;3.28;;;;;;;17.93;37.81;101964.22;4957202;28;20569;-65
2022/01/14 10:27:30;;;;;;;4.22;2.25;;;;;;;17.94;38.18;101965.88;4967607;28;20038;-67
2022/01/14 10:30:06;;;;;;;4.45;2.95;;;;;;;17.93;38.40;101957.13;4968247;28;20593;-71
2022/01/14 10:32:33;;;;;;;4.63;2.65;;;;;;;17.92;38.52;101955.47;4967874;28;20141;-68
2022/01/14 10:35:07;;;;;;;7.38;2.75;;;;;;;17.89;38.73;101953.16;4967224;28;20054;-70
2022/01/14 10:37:34;;;;;;;7.07;2.67;;;;;;;17.90;39.05;101949.53;4968093;28;20405;-71
2022/01/14 10:40:00;;;;;;;8.65;3.10;;;;;;;17.90;39.43;101952.16;4967782;28;20030;-68
2022/01/14 10:42:25;;;;;;;8.85;2.10;;;;;;;17.88;39.59;101954.13;4967215;28;20114;-66
2022/01/14 10:44:52;;;;;;;10.15;2.58;;;;;;;17.87;39.53;101952.47;4967697;28;20121;-70
2022/01/14 10:47:24;;;;;;;6.82;2.15;;;;;;;17.86;39.39;101942.91;4967377;28;20180;-70
2022/01/14 10:49:56;;;;;;;6.70;2.05;;;;;;;17.88;39.45;101935.66;4966985;28;20058;-68
2022/01/14 10:52:26;;;;;;;9.77;2.38;;;;;;;17.86;39.55;101935.81;4966748;28;20038;-66
2022/01/14 10:54:55;;;;;;;6.75;2.22;;;;;;;17.87;39.48;101931.38;4967526;28;20050;-68
2022/01/14 10:57:31;;;;;;;10.73;2.30;;;;;;;17.85;39.67;101928.91;4967583;28;20124;-70
2022/01/14 11:00:12;;;;;;;4.57;1.70;;;;;;;17.87;39.58;101926.09;4957998;28;20030;-67
2022/01/14 11:02:42;;;;;;;4.78;1.33;;;;;;;17.87;39.56;101920.84;4967263;28;20046;-67
2022/01/14 11:05:14;;;;;;;7.07;2.25;;;;;;;17.86;39.80;101919.19;4966794;28;20038;-69
2022/01/14 11:07:41;;;;;;;7.93;1.95;;;;;;;17.87;39.79;101908.47;4966260;28;20042;-67
2022/01/14 11:10:34;;;;;;;5.10;2.10;;;;;;;17.84;39.79;101902.69;4967633;28;20479;-69
2022/01/14 11:13:02;;;;;;;5.22;2.35;;;;;;;17.86;39.79;101898.09;4967635;28;20086;-67
2022/01/14 11:15:30;;;;;;;4.70;2.28;;;;;;;17.90;40.71;101894.16;4957728;28;20050;-69
2022/01/14 11:17:59;;;;;;;9.38;2.72;;;;;;;17.97;41.73;101889.88;4966535;28;20027;-68
2022/01/14 11:20:36;;;;;;;8.25;2.33;;;;;;;17.99;41.66;101892.34;4966933;28;20133;-67
2022/01/14 11:23:14;;;;;;;3.78;1.90;;;;;;;17.97;41.69;101881.13;4969839;28;20058;-69
2022/01/14 11:25:50;;;;;;;3.97;2.15;;;;;;;17.93;41.48;101878.03;4967663;28;20035;-70
2022/01/14 11:28:19;;;;;;;4.10;1.40;;;;;;;17.94;41.64;101877.03;4962105;28;20038;-71
2022/01/14 11:30:45;;;;;;;4.55;2.10;;;;;;;17.93;41.46;101869.28;4966230;28;20431;-69
2022/01/14 11:33:14;;;;;;;4.75;1.80;;;;;;;17.92;41.56;101854.44;4966500;28;20049;-69
2022/01/14 11:35:39;;;;;;;6.47;1.85;;;;;;;17.92;41.41;101849.19;4967458;28;20134;-69
2022/01/14 11:38:38;;;;;;;3.75;1.80;;;;;;;17.87;41.57;101854.91;4966930;28;20510;-68
2022/01/14 11:41:05;;;;;;;7.10;1.73;;;;;;;17.88;41.57;101846.03;4959342;28;20046;-70
2022/01/14 11:43:44;;;;;;;5.20;1.42;;;;;;;17.86;41.68;101840.91;4967177;28;20049;-67
2022/01/14 11:46:13;;;;;;;9.15;1.77;;;;;;;17.85;41.83;101822.63;4963723;28;20065;-67
2022/01/14 11:48:48;;;;;;;10.75;2.10;;;;;;;17.86;41.74;101829.53;4969233;28;20105;-68
2022/01/14 11:51:17;;;;;;;8.27;2.90;;;;;;;17.84;42.27;101826.25;4966760;28;20090;-68
2022/01/14 11:53:52;;;;;;;11.18;2.05;;;;;;;17.88;42.54;101822.31;4985000;28;20023;-67
2022/01/14 11:56:43;;;;;;;9.35;2.53;;;;;;;17.85;43.58;101825.25;4964963;28;20440;-70
2022/01/14 11:59:17;;;;;;;7.18;1.85;;;;;;;17.85;43.91;101819.97;4951591;28;20535;-67